Time;durP1;ratioP1;P1;durP2;ratioP2;P2;SDS_P1;SDS_P2;PMS_P1;PMS_P2;Temp;Humidity;BMP_temperature;BMP_pressure;BME280_temperature;BME280_humidity;BME280_pressure;Samples;Min_cycle;Max_cycle;Signal;HPM_P1;HPM_P2
2023/01/14 00:00:50;;;;;;;;;;;;;;;-144.99;100.00;52607.09;5069731;28;20418;-69
2023/01/14 00:03:18;;;;;;;;;;;;;;;-144.99;100.00;52586.69;5055221;28;19925;-69
2023/01/14 00:05:54;;;;;;;;;;;;;;;-144.99;100.00;52574.47;5069821;28;19972;-73
2023/01/14 00:08:20;;;;;;;;;;;;;;;-144.99;100.00;52584.66;5068725;28;19978;-69
2023/01/14 00:10:47;;;;;;;;;;;;;;;-144.99;100.00;52594.84;5067791;28;19925;-70
2023/01/14 00:13:13;;;;;;;;;;;;;;;-144.99;99.29;52533.69;5059730;28;20327;-68
2023/01/14 00:15:40;;;;;;;;;;;;;;;-144.99;98.87;52578.53;5067812;28;19932;-68
2023/01/14 00:18:06;;;;;;;;;;;;;;;-144.99;98.84;52558.16;5058026;28;20365;-68
2023/01/14 00:20:34;;;;;;;;;;;;;;;-144.99;98.20;52545.94;5069671;28;19963;-69
2023/01/14 00:23:01;;;;;;;;;;;;;;;-144.99;98.01;52554.09;5070142;28;20443;-70
2023/01/14 00:25:27;;;;;;;;;;;;;;;-144.99;98.10;52533.69;5069840;28;19928;-70
2023/01/14 00:27:54;;;;;;;;;;;;;;;-144.99;98.07;52578.53;5069322;28;19924;-70
2023/01/14 00:30:20;;;;;;;;;;;;;;;-144.99;99.08;52556.13;5067498;28;20375;-70
2023/01/14 00:32:47;;;;;;;;;;;;;;;-144.99;99.43;52558.16;5065807;28;19919;-71
2023/01/14 00:35:14;;;;;;;;;;;;;;;-144.99;99.64;52558.16;5065329;28;19933;-73
2023/01/14 00:37:41;;;;;;;;;;;;;;;-144.99;100.00;52568.34;5070179;28;20210;-70
2023/01/14 00:40:09;;;;;;;;;;;;;;;-144.99;100.00;52586.69;5066748;28;19932;-71
2023/01/14 00:42:35;;;;;;;;;;;;;;;-144.99;100.00;52574.47;5069298;28;20029;-71
2023/01/14 00:45:02;;;;;;;;;;;;;;;-144.99;100.00;52590.78;5068531;28;19947;-69
2023/01/14 00:47:28;;;;;;;;;;;;;;;-144.99;100.00;52574.47;5067407;28;19933;-70
2023/01/14 00:49:55;;;;;;;;;;;;;;;-144.99;100.00;52623.38;5068167;28;20339;-64
2023/01/14 00:52:21;;;;;;;;;;;;;;;-144.99;99.48;52590.78;5068241;28;20032;-66
2023/01/14 00:54:49;;;;;;;;;;;;;;;-144.99;99.74;52590.78;5068708;28;19928;-67
2023/01/14 00:57:16;;;;;;;;;;;;;;;-144.99;99.76;52576.50;5067253;28;20001;-67
2023/01/14 00:59:42;;;;;;;;;;;;;;;-144.99;100.00;52603.00;5068169;28;19928;-67
2023/01/14 01:02:09;;;;;;;;;;;;;;;-144.99;99.98;52554.09;5068231;28;19987;-67
2023/01/14 01:04:35;;;;;;;;;;;;;;;-144.99;99.45;52578.53;5068202;28;19993;-67
2023/01/14 01:07:02;;;;;;;;;;;;;;;-144.99;100.00;52590.78;5067157;28;20340;-66
2023/01/14 01:09:28;;;;;;;;;;;;;;;-144.99;100.00;52578.53;5068327;28;20640;-67
2023/01/14 01:11:56;;;;;;;;;;;;;;;-144.99;100.00;52558.16;5070094;28;19929;-67
2023/01/14 01:14:24;;;;;;;;;;;;;;;-144.99;100.00;52545.94;5083969;28;19977;-67
2023/01/14 01:16:50;;;;;;;;;;;;;;;-144.99;100.00;52574.47;5071596;28;20082;-66
2023/01/14 01:19:17;;;;;;;;;;;;;;;-144.99;100.00;52566.31;5067324;28;19940;-66
2023/01/14 01:21:44;;;;;;;;;;;;;;;-144.99;100.00;52580.59;5067309;28;19932;-67
2023/01/14 01:24:10;;;;;;;;;;;;;;;-144.99;100.00;52570.38;5067138;28;20393;-67
2023/01/14 01:26:37;;;;;;;;;;;;;;;-144.99;100.00;52578.53;5067419;28;20301;-67
2023/01/14 01:29:05;;;;;;;;;;;;;;;-144.99;100.00;52517.41;5065240;28;19961;-68
2023/01/14 01:31:32;;;;;;;;;;;;;;;-144.99;100.00;52582.63;5067068;28;19985;-69
2023/01/14 01:33:58;;;;;;;;;;;;;;;-144.99;100.00;52590.78;5062051;28;19954;-70
2023/01/14 01:36:25;;;;;;;;;;;;;;;-144.99;100.00;52603.00;5068616;28;19935;-69
2023/01/14 01:38:52;;;;;;;;;;;;;;;-144.99;100.00;52574.47;5067158;28;19967;-70
2023/01/14 01:41:19;;;;;;;;;;;;;;;-144.99;100.00;52562.25;5068599;28;19932;-69
2023/01/14 01:43:56;;;;;;;;;;;;;;;-144.99;100.00;52619.31;5068138;28;19994;-70
2023/01/14 01:46:24;;;;;;;;;;;;;;;-144.99;100.00;52594.84;5067117;28;19928;-69
2023/01/14 01:48:51;;;;;;;;;;;;;;;-144.99;100.00;52582.63;5064340;28;19955;-68
2023/01/14 01:51:19;;;;;;;;;;;;;;;-144.99;100.00;52586.69;5067209;28;19967;-70
2023/01/14 01:53:52;;;;;;;;;;;;;;;-144.99;100.00;52578.53;5077248;28;20412;-72
2023/01/14 01:56:20;;;;;;;;;;;;;;;-144.99;100.00;52600.97;5069432;28;20029;-70
2023/01/14 01:58:47;;;;;;;;;;;;;;;-144.99;100.00;52560.19;5066011;28;19978;-70
2023/01/14 02:01:14;;;;;;;;;;;;;;;-144.99;100.00;52576.50;5066242;28;20457;-70
2023/01/14 02:03:43;;;;;;;;;;;;;;;-144.99;100.00;52537.78;5066810;28;19982;-69
2023/01/14 02:06:10;;;;;;;;;;;;;;;-144.99;100.00;52566.31;5066762;28;20290;-69
2023/01/14 02:08:38;;;;;;;;;;;;;;;-144.99;100.00;52619.31;5066769;28;19928;-71
2023/01/14 02:11:18;;;;;;;;;;;;;;;-144.99;100.00;52566.31;5065409;28;19929;-70
2023/01/14 02:13:49;;;;;;;;;;;;;;;-144.99;100.00;52533.69;5060920;28;19932;-70
2023/01/14 02:16:19;;;;;;;;;;;;;;;-144.99;100.00;52545.94;5065106;28;19971;-69
2023/01/14 02:19:03;;;;;;;;;;;;;;;-144.99;100.00;52566.31;5066947;28;20257;-69
2023/01/14 02:21:31;;;;;;;;;;;;;;;-144.99;100.00;52586.69;5065285;28;20472;-70
2023/01/14 02:24:17;;;;;;;;;;;;;;;-144.99;100.00;52590.78;5064266;28;19986;-67
2023/01/14 02:26:59;;;;;;;;;;;;;;;-144.99;100.00;52576.50;5057525;28;19935;-67
2023/01/14 02:29:33;;;;;;;;;;;;;;;-144.99;100.00;52572.44;5066086;28;20278;-66
2023/01/14 02:32:03;;;;;;;;;;;;;;;-144.99;100.00;52574.47;5056073;28;20393;-64
2023/01/14 02:34:35;;;;;;;;;;;;;;;-144.99;100.00;52598.94;5074048;28;19928;-65
2023/01/14 02:37:08;;;;;;;;;;;;;;;-144.99;100.00;52578.53;5076718;28;19929;-71
2023/01/14 02:39:43;;;;;;;;;;;;;;;-144.99;100.00;52550.00;4936367;28;10000100;-69
2023/01/14 02:45:01;;;;;;;;;;;;;;;-144.99;100.00;52554.09;5063388;28;20231;-69
2023/01/14 02:47:28;;;;;;;;;;;;;;;-144.99;100.00;52594.84;5067175;28;20435;-70
2023/01/14 02:49:56;;;;;;;;;;;;;;;-144.99;100.00;52572.44;5065748;28;20270;-69
2023/01/14 02:52:24;;;;;;;;;;;;;;;-144.99;100.00;52550.00;5066985;28;19929;-70
2023/01/14 02:54:54;;;;;;;;;;;;;;;-144.99;100.00;52562.25;5064635;28;19935;-70
2023/01/14 02:57:33;;;;;;;;;;;;;;;-144.99;100.00;52554.09;5067514;28;20010;-71
2023/01/14 03:00:04;;;;;;;;;;;;;;;-144.99;100.00;52598.94;5067566;28;20205;-71
2023/01/14 03:02:36;;;;;;;;;;;;;;;-144.99;100.00;52582.63;5061966;28;19928;-71
2023/01/14 03:05:21;;;;;;;;;;;;;;;-144.99;100.00;52545.94;5068432;28;19983;-71
2023/01/14 03:07:51;;;;;;;;;;;;;;;-144.99;100.00;52543.91;5069010;28;19928;-70
2023/01/14 03:10:21;;;;;;;;;;;;;;;-144.99;99.95;52554.09;5069893;28;20306;-71
2023/01/14 03:12:50;;;;;;;;;;;;;;;-144.99;100.00;52574.47;5071948;28;19951;-70
2023/01/14 03:15:22;;;;;;;;;;;;;;;-144.99;99.69;52590.78;5083833;28;19998;-69
2023/01/14 03:17:51;;;;;;;;;;;;;;;-144.99;100.00;52521.47;5069689;28;19932;-68
2023/01/14 03:20:20;;;;;;;;;;;;;;;-144.99;99.68;52566.31;5072082;28;19932;-69
2023/01/14 03:22:49;;;;;;;;;;;;;;;-144.99;99.48;52558.16;5072028;28;19935;-69
2023/01/14 03:25:17;;;;;;;;;;;;;;;-144.99;98.37;52600.97;5072290;28;20348;-70
2023/01/14 03:27:45;;;;;;;;;;;;;;;-144.99;98.19;52562.25;5072392;28;19978;-70
2023/01/14 03:30:15;;;;;;;;;;;;;;;-144.99;98.05;52576.50;5071285;28;19924;-71
2023/01/14 03:32:45;;;;;;;;;;;;;;;-144.99;99.25;52594.84;5066487;28;19924;-70
2023/01/14 03:35:13;;;;;;;;;;;;;;;-144.99;99.72;52576.50;5072829;28;19972;-69
2023/01/14 03:37:42;;;;;;;;;;;;;;;-144.99;99.58;52586.69;5073088;28;19924;-69
2023/01/14 03:40:11;;;;;;;;;;;;;;;-144.99;98.28;52586.69;5071786;28;20385;-70
2023/01/14 03:42:41;;;;;;;;;;;;;;;-144.99;97.64;52562.25;5072288;28;19953;-70
2023/01/14 03:45:11;;;;;;;;;;;;;;;-144.99;97.57;52568.34;5072824;28;19967;-68
2023/01/14 03:47:38;;;;;;;;;;;;;;;-144.99;97.69;52566.31;5072390;28;19932;-69
2023/01/14 03:50:08;;;;;;;;;;;;;;;-144.99;98.26;52594.84;5072096;28;20335;-69
2023/01/14 03:52:40;;;;;;;;;;;;;;;-144.99;98.70;52554.09;5070975;28;19985;-70
2023/01/14 03:55:11;;;;;;;;;;;;;;;-144.99;98.06;52556.13;5074347;28;19924;-71
2023/01/14 03:57:40;;;;;;;;;;;;;;;-144.99;98.32;52554.09;5093333;28;19938;-73
2023/01/14 04:00:09;;;;;;;;;;;;;;;-144.99;97.88;52554.09;5072191;28;19932;-73
2023/01/14 04:02:36;;;;;;;;;;;;;;;-144.99;97.67;52543.91;5070562;28;19929;-72
2023/01/14 04:05:03;;;;;;;;;;;;;;;-144.99;98.36;52574.47;5072143;28;19986;-72
2023/01/14 04:07:32;;;;;;;;;;;;;;;-144.99;97.79;52521.47;5072356;28;19939;-74
2023/01/14 04:09:58;;;;;;;;;;;;;;;-144.99;97.08;52574.47;5072363;28;19972;-74
2023/01/14 04:12:25;;;;;;;;;;;;;;;-144.99;97.20;52627.47;5067446;28;20337;-72
2023/01/14 04:17:37;;;;;;;;;;;;;;;-144.99;95.96;52598.94;5070048;28;19947;-71
2023/01/14 04:20:04;;;;;;;;;;;;;;;-144.99;96.61;52568.34;5070864;28;19940;-70
2023/01/14 04:22:32;;;;;;;;;;;;;;;-144.99;96.47;52574.47;5069861;28;19932;-73
2023/01/14 04:24:59;;;;;;;;;;;;;;;-144.99;95.88;52607.09;5071252;28;20297;-70
2023/01/14 04:27:25;;;;;;;;;;;;;;;-144.99;96.08;52586.69;5071602;28;20346;-67
2023/01/14 04:29:52;;;;;;;;;;;;;;;-144.99;96.53;52541.84;5070980;28;19924;-66
2023/01/14 04:32:18;;;;;;;;;;;;;;;-144.99;97.47;52562.25;5069935;28;19951;-66
2023/01/14 04:34:45;;;;;;;;;;;;;;;-144.99;97.44;52582.63;5071534;28;20401;-67
2023/01/14 04:37:11;;;;;;;;;;;;;;;-144.99;97.63;52570.38;5079304;28;19932;-67
2023/01/14 04:39:39;;;;;;;;;;;;;;;-144.99;97.47;52578.53;5062770;28;19998;-68
2023/01/14 04:44:50;;;;;;;;;;;;;;;-144.99;97.66;52584.66;5058026;28;20297;-68
2023/01/14 04:47:16;;;;;;;;;;;;;;;-144.99;97.20;52605.03;5071298;28;19963;-69
2023/01/14 04:49:43;;;;;;;;;;;;;;;-144.99;97.24;52582.63;5071530;28;19963;-69
2023/01/14 04:52:10;;;;;;;;;;;;;;;-144.99;97.88;52603.00;5070057;28;20016;-69
2023/01/14 04:54:36;;;;;;;;;;;;;;;-144.99;97.83;52550.00;5070675;28;20033;-69
2023/01/14 04:57:04;;;;;;;;;;;;;;;-144.99;97.64;52568.34;5071059;28;19928;-69
2023/01/14 04:59:31;;;;;;;;;;;;;;;-144.99;99.44;52562.25;5070590;28;19987;-69
2023/01/14 05:01:57;;;;;;;;;;;;;;;-144.99;99.17;52588.75;5070208;28;19928;-69
2023/01/14 05:04:24;;;;;;;;;;;;;;;-144.99;99.04;52582.63;5069329;28;20009;-67
2023/01/14 05:06:50;;;;;;;;;;;;;;;-144.99;99.04;52576.50;5065606;28;19925;-67
2023/01/14 05:09:17;;;;;;;;;;;;;;;-144.99;99.72;52556.13;5070339;28;19928;-65
2023/01/14 05:11:43;;;;;;;;;;;;;;;-144.99;100.00;52554.09;5069265;28;20033;-65
2023/01/14 05:14:11;;;;;;;;;;;;;;;-144.99;99.79;52582.63;5070070;28;20333;-65
2023/01/14 05:16:38;;;;;;;;;;;;;;;-144.99;100.00;52582.63;5070686;28;19967;-64
2023/01/14 05:19:04;;;;;;;;;;;;;;;-144.99;100.00;52586.69;5072517;28;20502;-64
2023/01/14 05:21:31;;;;;;;;;;;;;;;-144.99;100.00;52582.63;5051609;28;19960;-64
2023/01/14 05:23:57;;;;;;;;;;;;;;;-144.99;100.00;52550.00;5070050;28;19966;-69
2023/01/14 05:26:24;;;;;;;;;;;;;;;-144.99;100.00;52582.63;5069844;28;20377;-68
2023/01/14 05:28:50;;;;;;;;;;;;;;;-144.99;100.00;52578.53;5070171;28;20309;-69
2023/01/14 05:31:18;;;;;;;;;;;;;;;-144.99;100.00;52578.53;5070135;28;19928;-68
2023/01/14 05:33:45;;;;;;;;;;;;;;;-144.99;100.00;52566.31;5069007;28;19928;-67
2023/01/14 05:36:11;;;;;;;;;;;;;;;-144.99;100.00;52574.47;5070623;28;20008;-67
2023/01/14 05:38:38;;;;;;;;;;;;;;;-144.99;100.00;52592.81;5070585;28;20308;-68
2023/01/14 05:41:04;;;;;;;;;;;;;;;-144.99;100.00;52578.53;5068554;28;19990;-67
2023/01/14 05:46:16;;;;;;;;;;;;;;;-144.99;100.00;52533.69;5069775;28;20009;-70
2023/01/14 05:48:44;;;;;;;;;;;;;;;-144.99;100.00;52545.94;5069785;28;20013;-67
2023/01/14 05:51:11;;;;;;;;;;;;;;;-144.99;100.00;52566.31;5068660;28;19928;-67
2023/01/14 05:53:38;;;;;;;;;;;;;;;-144.99;100.00;52570.38;5068577;28;19978;-67
2023/01/14 05:56:05;;;;;;;;;;;;;;;-144.99;100.00;52611.16;5065339;28;20024;-65
2023/01/14 05:58:31;;;;;;;;;;;;;;;-144.99;100.00;52552.03;5072037;28;19952;-66
2023/01/14 06:06:33;;;;;;;;;;;;;;;-144.99;99.92;52611.16;5069935;28;20112;-66
2023/01/14 06:09:01;;;;;;;;;;;;;;;-144.99;99.94;52633.59;5064742;28;19933;-66
2023/01/14 06:11:28;;;;;;;;;;;;;;;-144.99;99.59;52578.53;5062049;28;19955;-66
2023/01/14 06:13:57;;;;;;;;;;;;;;;-144.99;100.00;52533.69;5070298;28;19928;-66
2023/01/14 06:16:24;;;;;;;;;;;;;;;-144.99;100.00;52594.84;5065380;28;20315;-67
2023/01/14 06:18:51;;;;;;;;;;;;;;;-144.99;100.00;52582.63;5064297;28;20551;-66
2023/01/14 06:21:19;;;;;;;;;;;;;;;-144.99;100.00;52578.53;5067265;28;20065;-66
2023/01/14 06:23:46;;;;;;;;;;;;;;;-144.99;99.50;52596.88;5069108;28;19978;-66
2023/01/14 06:26:14;;;;;;;;;;;;;;;-144.99;100.00;52541.84;5068313;28;19924;-65
2023/01/14 06:28:41;;;;;;;;;;;;;;;-144.99;99.40;52558.16;5068953;28;19928;-65
2023/01/14 06:31:11;;;;;;;;;;;;;;;-144.99;99.27;52582.63;5067793;28;20484;-70
2023/01/14 06:33:38;;;;;;;;;;;;;;;-144.99;99.74;52554.09;5064310;28;19978;-71
2023/01/14 06:36:07;;;;;;;;;;;;;;;-144.99;99.40;52594.84;5069471;28;19929;-70
2023/01/14 06:38:33;;;;;;;;;;;;;;;-144.99;98.91;52570.38;5076480;28;19975;-71
2023/01/14 06:41:00;;;;;;;;;;;;;;;-144.99;99.15;52566.31;5090999;28;19912;-70
2023/01/14 06:43:27;;;;;;;;;;;;;;;-144.99;99.32;52562.25;5069498;28;20385;-70
2023/01/14 06:45:54;;;;;;;;;;;;;;;-144.99;99.23;52554.09;5069584;28;19935;-69
2023/01/14 06:48:20;;;;;;;;;;;;;;;-144.99;98.62;52594.84;5068547;28;20096;-65
2023/01/14 06:50:47;;;;;;;;;;;;;;;-144.99;98.56;52582.63;5067143;28;19924;-66
2023/01/14 06:53:15;;;;;;;;;;;;;;;-144.99;99.04;52576.50;5066978;28;19978;-66
2023/01/14 06:55:41;;;;;;;;;;;;;;;-144.99;97.75;52582.63;5067764;28;19924;-65
2023/01/14 06:58:08;;;;;;;;;;;;;;;-144.99;98.26;52590.78;5069048;28;20337;-64
2023/01/14 07:00:35;;;;;;;;;;;;;;;-144.99;98.25;52533.69;5066633;28;20345;-65
2023/01/14 07:03:01;;;;;;;;;;;;;;;-144.99;98.39;52586.69;5067976;28;19925;-65
2023/01/14 07:05:28;;;;;;;;;;;;;;;-144.99;97.48;52578.53;5067849;28;20387;-65
2023/01/14 07:07:54;;;;;;;;;;;;;;;-144.99;98.08;52615.25;5068611;28;20412;-65
2023/01/14 07:10:22;;;;;;;;;;;;;;;-144.99;97.28;52590.78;5067831;28;20348;-65
2023/01/14 07:12:50;;;;;;;;;;;;;;;-144.99;96.92;52578.53;5067511;28;20407;-66
2023/01/14 07:15:17;;;;;;;;;;;;;;;-144.99;97.36;52560.19;5067774;28;19925;-66
2023/01/14 07:17:45;;;;;;;;;;;;;;;-144.99;96.60;52572.44;5067926;28;19989;-68
2023/01/14 07:20:12;;;;;;;;;;;;;;;-144.99;97.03;52560.19;5070840;28;19925;-70
2023/01/14 07:22:38;;;;;;;;;;;;;;;-144.99;97.03;52503.13;5073104;28;19986;-70
2023/01/14 07:25:06;;;;;;;;;;;;;;;-144.99;97.88;52572.44;5068438;28;20006;-70
2023/01/14 07:27:34;;;;;;;;;;;;;;;-144.99;97.32;52607.09;5054857;28;19966;-70
2023/01/14 07:30:01;;;;;;;;;;;;;;;-144.99;97.83;52586.69;5068051;28;20025;-68
2023/01/14 07:32:27;;;;;;;;;;;;;;;-144.99;99.03;52582.63;5065619;28;19932;-67
2023/01/14 07:34:54;;;;;;;;;;;;;;;-144.99;98.25;52558.16;5064058;28;20458;-68
2023/01/14 07:37:20;;;;;;;;;;;;;;;-144.99;97.50;52598.94;5067275;28;20403;-67
2023/01/14 07:39:47;;;;;;;;;;;;;;;-144.99;97.46;52586.69;5065950;28;19931;-68
2023/01/14 07:42:16;;;;;;;;;;;;;;;-144.99;96.89;52603.00;5066825;28;20431;-67
2023/01/14 07:44:44;;;;;;;;;;;;;;;-144.99;96.14;52603.00;5067790;28;19968;-68
2023/01/14 07:47:11;;;;;;;;;;;;;;;-144.99;96.80;52578.53;5065746;28;20369;-67
2023/01/14 07:49:39;;;;;;;;;;;;;;;-144.99;97.16;52607.09;5068058;28;20015;-67
2023/01/14 07:52:05;;;;;;;;;;;;;;;-144.99;97.32;52541.84;5066361;28;19960;-68
2023/01/14 07:54:32;;;;;;;;;;;;;;;-144.99;97.57;52594.84;5066199;28;19997;-67
2023/01/14 07:56:59;;;;;;;;;;;;;;;-144.99;97.08;52554.09;5069888;28;20451;-71
2023/01/14 07:59:25;;;;;;;;;;;;;;;-144.99;98.68;52574.47;5077389;28;20321;-70
2023/01/14 08:01:53;;;;;;;;;;;;;;;-144.99;96.52;52550.00;5079343;28;19925;-70
2023/01/14 08:04:19;;;;;;;;;;;;;;;-144.99;95.71;52598.94;5069008;28;19993;-70
2023/01/14 08:06:46;;;;;;;;;;;;;;;-144.99;95.18;52570.38;5064748;28;19925;-70
2023/01/14 08:09:12;;;;;;;;;;;;;;;-144.99;94.58;52558.16;5071123;28;19924;-69
2023/01/14 08:11:40;;;;;;;;;;;;;;;-144.99;94.84;52607.09;5070984;28;19974;-70
2023/01/14 08:14:07;;;;;;;;;;;;;;;-144.99;94.55;52590.78;5070340;28;19970;-69
2023/01/14 08:16:33;;;;;;;;;;;;;;;-144.99;94.46;52582.63;5071688;28;19929;-70
2023/01/14 08:19:01;;;;;;;;;;;;;;;-144.99;94.89;52560.19;5071075;28;19985;-70
2023/01/14 08:21:28;;;;;;;;;;;;;;;-144.99;95.67;52603.00;5060749;28;19967;-70
2023/01/14 08:23:54;;;;;;;;;;;;;;;-144.99;95.33;52590.78;5070022;28;19975;-70
2023/01/14 08:26:21;;;;;;;;;;;;;;;-144.99;95.22;52556.13;5059929;28;20594;-69
2023/01/14 08:28:47;;;;;;;;;;;;;;;-144.99;95.20;52586.69;5065436;28;20370;-69
2023/01/14 08:31:15;;;;;;;;;;;;;;;-144.99;95.75;52586.69;5069683;28;19929;-70
2023/01/14 08:33:43;;;;;;;;;;;;;;;-144.99;95.62;52562.25;5070947;28;20323;-70
2023/01/14 08:36:12;;;;;;;;;;;;;;;-144.99;96.44;52562.25;5070357;28;20206;-77
2023/01/14 08:38:40;;;;;;;;;;;;;;;-144.99;95.92;52607.09;5077915;28;19955;-76
2023/01/14 08:41:07;;;;;;;;;;;;;;;-144.99;96.27;52574.47;5090967;28;19947;-79
2023/01/14 08:43:34;;;;;;;;;;;;;;;-144.99;96.55;52596.88;5073378;28;19978;-76
2023/01/14 08:46:01;;;;;;;;;;;;;;;-144.99;97.18;52574.47;5069991;28;19925;-76
2023/01/14 08:48:28;;;;;;;;;;;;;;;-144.99;96.54;52578.53;5069504;28;20365;-76
2023/01/14 08:50:55;;;;;;;;;;;;;;;-144.99;97.48;52562.25;5067491;28;19928;-75
2023/01/14 08:53:23;;;;;;;;;;;;;;;-144.99;97.27;52574.47;5072617;28;20161;-77
2023/01/14 08:55:49;;;;;;;;;;;;;;;-144.99;96.14;52562.25;5069526;28;20150;-73
2023/01/14 08:58:16;;;;;;;;;;;;;;;-144.99;95.96;52578.53;5066440;28;19967;-73
2023/01/14 09:00:42;;;;;;;;;;;;;;;-144.99;96.76;52584.66;5063014;28;19932;-73
2023/01/14 09:03:09;;;;;;;;;;;;;;;-144.99;96.39;52621.34;5064678;28;19928;-72
2023/01/14 09:05:35;;;;;;;;;;;;;;;-144.99;95.60;52570.38;5066893;28;19925;-73
2023/01/14 09:19:02;;;;;;;;;;;;;;;-144.99;95.50;52586.69;5082659;28;19932;-73
2023/01/14 09:21:28;;;;;;;;;;;;;;;-144.99;96.17;52586.69;5090876;22;19933;-71
2023/01/14 09:23:55;;;;;;;;;;;;;;;-144.99;95.55;52566.31;5066357;28;20474;-70
2023/01/14 09:26:23;;;;;;;;;;;;;;;-144.99;94.98;52586.69;5070964;28;19966;-71
2023/01/14 09:28:50;;;;;;;;;;;;;;;-144.99;94.58;52576.50;5070331;28;19924;-71
2023/01/14 09:31:16;;;;;;;;;;;;;;;-144.99;94.72;52586.69;5069629;28;20038;-71
2023/01/14 09:33:43;;;;;;;;;;;;;;;-144.99;93.99;52590.78;5069461;28;19979;-71
2023/01/14 09:36:09;;;;;;;;;;;;;;;-144.99;95.63;52594.84;5036623;28;19925;-71
2023/01/14 09:38:36;;;;;;;;;;;;;;;-144.99;95.28;52594.84;5049966;28;20360;-71
2023/01/14 09:41:02;;;;;;;;;;;;;;;-144.99;94.93;52574.47;5049540;28;20028;-71
2023/01/14 09:43:31;;;;;;;;;;;;;;;-144.99;94.77;52578.53;5049740;28;19971;-71
2023/01/14 09:46:00;;;;;;;;;;;;;;;-144.99;94.91;52547.97;5049940;28;19936;-71
2023/01/14 09:48:28;;;;;;;;;;;;;;;-144.99;94.60;52617.28;5050297;28;20293;-71
2023/01/14 09:51:01;;;;;;;;;;;;;;;-144.99;94.64;52586.69;5049809;28;20000;-71
2023/01/14 09:53:42;;;;;;;;;;;;;;;-144.99;95.46;52566.31;5056179;28;19974;-71
2023/01/14 09:56:13;;;;;;;;;;;;;;;-144.99;95.39;52582.63;5049799;28;19929;-71
2023/01/14 09:58:44;;;;;;;;;;;;;;;-144.99;95.10;52566.31;5058759;28;19966;-71
2023/01/14 10:01:16;;;;;;;;;;;;;;;-144.99;95.72;52584.66;5049008;28;20679;-71
2023/01/14 10:03:45;;;;;;;;;;;;;;;-144.99;95.08;52578.53;5051305;28;19972;-71
2023/01/14 10:06:16;;;;;;;;;;;;;;;-144.99;94.60;52590.78;5057270;28;19937;-71
2023/01/14 10:08:45;;;;;;;;;;;;;;;-144.99;95.13;52574.47;5049706;28;19929;-71
2023/01/14 10:11:12;;;;;;;;;;;;;;;-144.99;94.80;52545.94;5049862;28;19933;-71
2023/01/14 10:13:44;;;;;;;;;;;;;;;-144.99;94.47;52545.94;5055347;28;19986;-71
2023/01/14 10:16:13;;;;;;;;;;;;;;;-144.99;95.35;52578.53;5068943;28;20014;-72
2023/01/14 10:18:43;;;;;;;;;;;;;;;-144.99;94.63;52594.84;5068740;28;19928;-71
2023/01/14 10:21:13;;;;;;;;;;;;;;;-144.99;94.03;52558.16;5064028;28;20480;-71
2023/01/14 10:23:41;;;;;;;;;;;;;;;-144.99;94.25;52607.09;5060029;28;19944;-71
2023/01/14 10:26:11;;;;;;;;;;;;;;;-144.99;94.10;52615.25;5048314;28;19945;-71
2023/01/14 10:28:38;;;;;;;;;;;;;;;-144.99;94.34;52570.38;5048999;28;19943;-71
2023/01/14 10:31:07;;;;;;;;;;;;;;;-144.99;94.45;52562.25;5051748;28;19925;-71
2023/01/14 10:33:33;;;;;;;;;;;;;;;-144.99;93.96;52586.69;5068250;28;20231;-71
2023/01/14 10:36:03;;;;;;;;;;;;;;;-144.99;93.97;52578.53;5051571;28;19964;-72
2023/01/14 10:38:31;;;;;;;;;;;;;;;-144.99;93.50;52558.16;5047816;28;21339;-71
2023/01/14 10:41:00;;;;;;;;;;;;;;;-144.99;93.73;52598.94;5047915;28;20328;-72
2023/01/14 10:43:29;;;;;;;;;;;;;;;-144.99;93.36;52580.59;5048693;28;20454;-71
2023/01/14 10:45:56;;;;;;;;;;;;;;;-144.99;93.66;52588.75;5048355;28;19990;-72
2023/01/14 10:48:25;;;;;;;;;;;;;;;-144.99;93.26;52550.00;5048923;28;20392;-72
2023/01/14 10:50:52;;;;;;;;;;;;;;;-144.99;93.26;52574.47;5048228;28;19990;-72
2023/01/14 10:53:19;;;;;;;;;;;;;;;-144.99;93.52;52529.63;5055644;28;19939;-71
2023/01/14 10:55:51;;;;;;;;;;;;;;;-144.99;93.46;52550.00;5048082;28;20327;-71
2023/01/14 10:58:22;;;;;;;;;;;;;;;-144.99;92.31;52566.31;5063706;28;20352;-72
2023/01/14 11:00:51;;;;;;;;;;;;;;;-144.99;92.47;52554.09;5048919;28;19968;-73
2023/01/14 11:03:23;;;;;;;;;;;;;;;-144.99;92.07;52570.38;5049917;28;19929;-72
2023/01/14 11:05:55;;;;;;;;;;;;;;;-144.99;92.38;52562.25;5051149;28;19972;-72
2023/01/14 11:08:23;;;;;;;;;;;;;;;-144.99;92.06;52584.66;5048581;28;20320;-72
2023/01/14 11:10:54;;;;;;;;;;;;;;;-144.99;91.37;52572.44;5047894;28;19979;-72
2023/01/14 11:13:26;;;;;;;;;;;;;;;-144.99;91.47;52533.69;5047895;28;20027;-72
2023/01/14 11:15:53;;;;;;;;;;;;;;;-144.99;91.93;52607.09;5048529;28;19971;-72
2023/01/14 11:18:23;;;;;;;;;;;;;;;-144.99;91.55;52574.47;5048351;28;19971;-72
2023/01/14 11:20:53;;;;;;;;;;;;;;;-144.99;91.40;52600.97;5047802;28;19968;-72
2023/01/14 11:23:26;;;;;;;;;;;;;;;-144.99;91.51;52574.47;5065889;28;19928;-72
2023/01/14 11:25:54;;;;;;;;;;;;;;;-144.99;89.95;52613.19;5067863;28;20450;-72
2023/01/14 11:28:20;;;;;;;;;;;;;;;-144.99;89.91;52594.84;5067983;28;20418;-72
2023/01/14 11:30:50;;;;;;;;;;;;;;;-144.99;90.98;52570.38;5070288;28;19936;-72
2023/01/14 11:33:19;;;;;;;;;;;;;;;-144.99;91.18;52586.69;5071183;28;19955;-72
2023/01/14 11:35:49;;;;;;;;;;;;;;;-144.99;91.39;52533.69;5058032;28;19964;-72
2023/01/14 11:38:19;;;;;;;;;;;;;;;-144.99;91.63;52566.31;5051902;28;20386;-72
2023/01/14 11:43:34;;;;;;;;;;;;;;;-144.99;92.42;52566.31;5051842;28;19936;-72
2023/01/14 11:46:07;;;;;;;;;;;;;;;-144.99;92.34;52574.47;5051488;28;19933;-72
2023/01/14 11:48:33;;;;;;;;;;;;;;;-144.99;92.80;52596.88;5053308;28;19971;-72
2023/01/14 11:51:01;;;;;;;;;;;;;;;-144.99;92.42;52578.53;5052222;28;20029;-72
2023/01/14 11:53:42;;;;;;;;;;;;;;;-144.99;93.47;52556.13;5060364;28;20062;-72
2023/01/14 11:56:15;;;;;;;;;;;;;;;-144.99;94.48;52580.59;5041154;28;19932;-70
2023/01/14 11:58:41;;;;;;;;;;;;;;;-144.99;95.49;52550.00;5064070;28;20440;-69
2023/01/14 12:01:18;;;;;;;;;;;;;;;-144.99;96.59;52558.16;5051086;28;19971;-69
2023/01/14 12:03:48;;;;;;;;;;;;;;;-144.99;98.78;52556.13;5052666;28;20346;-69
2023/01/14 12:06:17;;;;;;;;;;;;;;;-144.99;99.76;52566.31;5059032;28;19925;-69
2023/01/14 12:08:46;;;;;;;;;;;;;;;-144.99;100.00;52590.78;5051086;28;19936;-69
2023/01/14 12:11:17;;;;;;;;;;;;;;;-144.99;99.95;52568.34;5050815;28;19960;-69
2023/01/14 12:16:52;;;;;;;;;;;;;;;-144.99;100.00;52550.00;5051063;28;19940;-69
2023/01/14 12:19:21;;;;;;;;;;;;;;;-144.99;100.00;52586.69;5051148;28;19998;-69
2023/01/14 12:21:50;;;;;;;;;;;;;;;-144.99;100.00;52570.38;5056427;28;19982;-69
2023/01/14 12:24:21;;;;;;;;;;;;;;;-144.99;100.00;52594.84;5070902;28;20462;-70
2023/01/14 12:26:49;;;;;;;;;;;;;;;-144.99;100.00;52594.84;5070921;28;19928;-69
2023/01/14 12:29:19;;;;;;;;;;;;;;;-144.99;100.00;52582.63;5070594;28;20312;-69
2023/01/14 12:31:47;;;;;;;;;;;;;;;-144.99;100.00;52590.78;5070441;28;20532;-69
2023/01/14 12:34:18;;;;;;;;;;;;;;;-144.99;100.00;52590.78;5072014;28;19998;-69
2023/01/14 12:36:49;;;;;;;;;;;;;;;-144.99;100.00;52603.00;5071091;28;20027;-69
2023/01/14 12:47:45;;;;;;;;;;;;;;;-144.99;100.00;52568.34;5071026;28;19940;-71
2023/01/14 12:50:15;;;;;;;;;;;;;;;-144.99;100.00;52574.47;5070484;28;19983;-70
2023/01/14 12:52:48;;;;;;;;;;;;;;;-144.99;100.00;52590.78;5070469;28;20317;-70
2023/01/14 12:55:21;;;;;;;;;;;;;;;-144.99;100.00;52586.69;5055097;28;19964;-71
2023/01/14 12:57:50;;;;;;;;;;;;;;;-144.99;100.00;52562.25;5063928;28;20045;-70
2023/01/14 13:00:19;;;;;;;;;;;;;;;-144.99;100.00;52596.88;5051338;28;20405;-70
2023/01/14 13:02:47;;;;;;;;;;;;;;;-144.99;100.00;52619.31;5056313;28;19932;-70
2023/01/14 13:05:16;;;;;;;;;;;;;;;-144.99;100.00;52566.31;5059615;28;19935;-70
2023/01/14 13:07:49;;;;;;;;;;;;;;;-144.99;100.00;52550.00;5050620;28;19929;-70
2023/01/14 13:10:24;;;;;;;;;;;;;;;-144.99;100.00;52578.53;5049700;28;20028;-69